sensor_id;sensor_type;location;lat;lon;timestamp;P1;durP1;ratioP1;P2;durP2;ratioP2
16600;SDS011;34891;48.164;11.572;2022-10-16T00:02:01;5.63;;;2.00;;
16600;SDS011;34891;48.164;11.572;2022-10-16T00:07:04;4.40;;;2.03;;
16600;SDS011;34891;48.164;11.572;2022-10-16T00:12:09;5.47;;;1.77;;
16600;SDS011;34891;48.164;11.572;2022-10-16T00:17:12;0.73;;;0.70;;
16600;SDS011;34891;48.164;11.572;2022-10-16T00:22:15;2.97;;;1.63;;
16600;SDS011;34891;48.164;11.572;2022-10-16T00:27:19;2.20;;;1.70;;
16600;SDS011;34891;48.164;11.572;2022-10-16T00:32:23;3.85;;;1.60;;
16600;SDS011;34891;48.164;11.572;2022-10-16T00:37:26;2.15;;;1.50;;
16600;SDS011;34891;48.164;11.572;2022-10-16T00:42:31;2.28;;;1.38;;
16600;SDS011;34891;48.164;11.572;2022-10-16T00:47:34;6.00;;;1.90;;
16600;SDS011;34891;48.164;11.572;2022-10-16T00:52:43;3.55;;;1.83;;
16600;SDS011;34891;48.164;11.572;2022-10-16T00:57:49;2.45;;;1.55;;
16600;SDS011;34891;48.164;11.572;2022-10-16T01:02:52;3.35;;;1.73;;
16600;SDS011;34891;48.164;11.572;2022-10-16T01:07:56;2.28;;;0.98;;
16600;SDS011;34891;48.164;11.572;2022-10-16T01:13:06;2.92;;;1.52;;
16600;SDS011;34891;48.164;11.572;2022-10-16T01:18:11;5.55;;;1.73;;
16600;SDS011;34891;48.164;11.572;2022-10-16T01:23:21;1.65;;;1.40;;
16600;SDS011;34891;48.164;11.572;2022-10-16T01:28:32;3.25;;;1.65;;
16600;SDS011;34891;48.164;11.572;2022-10-16T01:33:38;2.70;;;1.58;;
16600;SDS011;34891;48.164;11.572;2022-10-16T01:38:43;1.10;;;0.80;;
16600;SDS011;34891;48.164;11.572;2022-10-16T01:43:48;2.50;;;1.42;;
16600;SDS011;34891;48.164;11.572;2022-10-16T01:48:54;2.75;;;1.52;;
16600;SDS011;34891;48.164;11.572;2022-10-16T01:53:58;2.13;;;1.20;;
16600;SDS011;34891;48.164;11.572;2022-10-16T01:59:05;1.58;;;1.13;;
16600;SDS011;34891;48.164;11.572;2022-10-16T02:04:10;3.10;;;1.70;;
16600;SDS011;34891;48.164;11.572;2022-10-16T02:09:14;3.22;;;1.70;;
16600;SDS011;34891;48.164;11.572;2022-10-16T02:19:23;3.05;;;1.73;;
16600;SDS011;34891;48.164;11.572;2022-10-16T02:24:27;2.35;;;1.50;;
16600;SDS011;34891;48.164;11.572;2022-10-16T02:29:31;1.67;;;1.10;;
16600;SDS011;34891;48.164;11.572;2022-10-16T02:34:37;6.65;;;1.48;;
16600;SDS011;34891;48.164;11.572;2022-10-16T02:39:40;2.80;;;1.60;;
16600;SDS011;34891;48.164;11.572;2022-10-16T02:44:43;1.58;;;1.25;;
16600;SDS011;34891;48.164;11.572;2022-10-16T02:49:48;1.47;;;1.07;;
16600;SDS011;34891;48.164;11.572;2022-10-16T02:54:51;4.32;;;1.60;;
16600;SDS011;34891;48.164;11.572;2022-10-16T02:59:54;4.43;;;1.40;;
16600;SDS011;34891;48.164;11.572;2022-10-16T03:04:58;1.15;;;0.80;;
16600;SDS011;34891;48.164;11.572;2022-10-16T03:10:01;8.27;;;1.48;;
16600;SDS011;34891;48.164;11.572;2022-10-16T03:15:04;1.47;;;1.13;;
16600;SDS011;34891;48.164;11.572;2022-10-16T03:20:09;2.15;;;1.05;;
16600;SDS011;34891;48.164;11.572;2022-10-16T03:25:12;1.02;;;0.70;;
16600;SDS011;34891;48.164;11.572;2022-10-16T03:30:15;1.15;;;0.73;;
16600;SDS011;34891;48.164;11.572;2022-10-16T03:35:19;1.63;;;1.20;;
16600;SDS011;34891;48.164;11.572;2022-10-16T03:40:25;0.90;;;0.77;;
16600;SDS011;34891;48.164;11.572;2022-10-16T03:45:28;1.30;;;0.80;;
16600;SDS011;34891;48.164;11.572;2022-10-16T03:50:33;2.53;;;1.38;;
16600;SDS011;34891;48.164;11.572;2022-10-16T03:55:36;1.50;;;1.20;;
16600;SDS011;34891;48.164;11.572;2022-10-16T04:00:39;1.30;;;1.10;;
16600;SDS011;34891;48.164;11.572;2022-10-16T04:05:44;3.20;;;1.40;;
16600;SDS011;34891;48.164;11.572;2022-10-16T04:10:47;3.90;;;1.17;;
16600;SDS011;34891;48.164;11.572;2022-10-16T04:15:50;2.07;;;1.50;;
16600;SDS011;34891;48.164;11.572;2022-10-16T04:20:54;3.03;;;1.33;;
16600;SDS011;34891;48.164;11.572;2022-10-16T04:25:57;2.30;;;1.20;;
16600;SDS011;34891;48.164;11.572;2022-10-16T04:31:03;2.03;;;1.10;;
16600;SDS011;34891;48.164;11.572;2022-10-16T04:36:08;1.30;;;1.20;;
16600;SDS011;34891;48.164;11.572;2022-10-16T04:41:11;6.30;;;1.23;;
16600;SDS011;34891;48.164;11.572;2022-10-16T04:46:14;2.90;;;1.70;;
16600;SDS011;34891;48.164;11.572;2022-10-16T04:51:18;2.67;;;1.20;;
16600;SDS011;34891;48.164;11.572;2022-10-16T04:56:21;1.88;;;1.20;;
16600;SDS011;34891;48.164;11.572;2022-10-16T05:01:24;3.55;;;1.63;;
16600;SDS011;34891;48.164;11.572;2022-10-16T05:06:28;2.13;;;1.30;;
16600;SDS011;34891;48.164;11.572;2022-10-16T05:11:32;1.50;;;0.90;;
16600;SDS011;34891;48.164;11.572;2022-10-16T05:16:37;3.83;;;1.10;;
16600;SDS011;34891;48.164;11.572;2022-10-16T05:21:41;2.17;;;1.60;;
16600;SDS011;34891;48.164;11.572;2022-10-16T05:26:44;2.78;;;1.35;;
16600;SDS011;34891;48.164;11.572;2022-10-16T05:31:49;6.40;;;1.40;;
16600;SDS011;34891;48.164;11.572;2022-10-16T05:36:54;2.53;;;1.00;;
16600;SDS011;34891;48.164;11.572;2022-10-16T05:41:57;2.00;;;1.27;;
16600;SDS011;34891;48.164;11.572;2022-10-16T05:47:00;1.17;;;0.88;;
16600;SDS011;34891;48.164;11.572;2022-10-16T05:52:04;2.13;;;1.40;;
16600;SDS011;34891;48.164;11.572;2022-10-16T05:57:07;1.75;;;1.30;;
16600;SDS011;34891;48.164;11.572;2022-10-16T06:02:10;1.98;;;1.40;;
16600;SDS011;34891;48.164;11.572;2022-10-16T06:07:16;2.90;;;1.55;;
16600;SDS011;34891;48.164;11.572;2022-10-16T06:12:19;3.55;;;1.27;;
16600;SDS011;34891;48.164;11.572;2022-10-16T06:17:22;2.90;;;1.55;;
16600;SDS011;34891;48.164;11.572;2022-10-16T06:27:30;2.65;;;1.60;;
16600;SDS011;34891;48.164;11.572;2022-10-16T06:32:33;4.15;;;1.40;;
16600;SDS011;34891;48.164;11.572;2022-10-16T06:37:37;3.20;;;1.47;;
16600;SDS011;34891;48.164;11.572;2022-10-16T06:47:44;3.35;;;1.50;;
16600;SDS011;34891;48.164;11.572;2022-10-16T06:52:48;4.90;;;2.00;;
16600;SDS011;34891;48.164;11.572;2022-10-16T07:02:54;2.85;;;1.70;;
16600;SDS011;34891;48.164;11.572;2022-10-16T07:07:57;2.92;;;1.80;;
16600;SDS011;34891;48.164;11.572;2022-10-16T07:13:00;4.90;;;1.95;;
16600;SDS011;34891;48.164;11.572;2022-10-16T07:18:05;3.25;;;1.55;;
16600;SDS011;34891;48.164;11.572;2022-10-16T07:23:07;5.55;;;1.90;;
16600;SDS011;34891;48.164;11.572;2022-10-16T07:28:10;2.80;;;1.60;;
16600;SDS011;34891;48.164;11.572;2022-10-16T07:33:14;3.50;;;1.80;;
16600;SDS011;34891;48.164;11.572;2022-10-16T07:38:17;3.33;;;1.77;;
16600;SDS011;34891;48.164;11.572;2022-10-16T07:43:20;5.28;;;2.08;;
16600;SDS011;34891;48.164;11.572;2022-10-16T07:48:26;3.08;;;1.45;;
16600;SDS011;34891;48.164;11.572;2022-10-16T07:53:29;6.13;;;3.10;;
16600;SDS011;34891;48.164;11.572;2022-10-16T07:58:32;4.50;;;2.30;;
16600;SDS011;34891;48.164;11.572;2022-10-16T08:03:37;5.40;;;2.20;;
16600;SDS011;34891;48.164;11.572;2022-10-16T08:08:40;2.83;;;2.30;;
16600;SDS011;34891;48.164;11.572;2022-10-16T08:13:44;3.63;;;2.55;;
16600;SDS011;34891;48.164;11.572;2022-10-16T08:18:48;3.33;;;2.00;;
16600;SDS011;34891;48.164;11.572;2022-10-16T08:23:54;4.65;;;2.17;;
16600;SDS011;34891;48.164;11.572;2022-10-16T08:28:58;3.05;;;2.38;;
16600;SDS011;34891;48.164;11.572;2022-10-16T08:34:03;2.55;;;2.00;;
16600;SDS011;34891;48.164;11.572;2022-10-16T08:39:06;2.30;;;2.10;;
16600;SDS011;34891;48.164;11.572;2022-10-16T08:44:16;3.28;;;2.22;;
16600;SDS011;34891;48.164;11.572;2022-10-16T08:49:24;3.17;;;2.30;;
16600;SDS011;34891;48.164;11.572;2022-10-16T08:54:28;3.15;;;2.08;;
16600;SDS011;34891;48.164;11.572;2022-10-16T08:59:32;2.30;;;2.08;;
16600;SDS011;34891;48.164;11.572;2022-10-16T09:04:45;2.25;;;2.03;;
16600;SDS011;34891;48.164;11.572;2022-10-16T09:10:06;2.30;;;2.08;;
16600;SDS011;34891;48.164;11.572;2022-10-16T09:15:13;2.50;;;2.30;;
16600;SDS011;34891;48.164;11.572;2022-10-16T09:20:22;2.20;;;2.00;;
16600;SDS011;34891;48.164;11.572;2022-10-16T09:25:27;2.90;;;2.25;;
16600;SDS011;34891;48.164;11.572;2022-10-16T09:30:30;2.70;;;2.50;;
16600;SDS011;34891;48.164;11.572;2022-10-16T09:35:35;3.17;;;2.58;;
16600;SDS011;34891;48.164;11.572;2022-10-16T09:40:38;3.10;;;2.40;;
16600;SDS011;34891;48.164;11.572;2022-10-16T09:45:52;2.15;;;2.05;;
16600;SDS011;34891;48.164;11.572;2022-10-16T09:50:58;2.47;;;2.28;;
16600;SDS011;34891;48.164;11.572;2022-10-16T09:56:01;2.30;;;2.10;;
16600;SDS011;34891;48.164;11.572;2022-10-16T10:01:13;2.28;;;2.00;;
16600;SDS011;34891;48.164;11.572;2022-10-16T10:06:25;2.63;;;2.42;;
16600;SDS011;34891;48.164;11.572;2022-10-16T10:11:38;4.18;;;2.47;;
16600;SDS011;34891;48.164;11.572;2022-10-16T10:16:42;2.85;;;2.55;;
16600;SDS011;34891;48.164;11.572;2022-10-16T10:21:46;2.60;;;2.38;;
16600;SDS011;34891;48.164;11.572;2022-10-16T10:26:51;3.42;;;3.13;;
16600;SDS011;34891;48.164;11.572;2022-10-16T10:31:57;2.92;;;2.63;;
16600;SDS011;34891;48.164;11.572;2022-10-16T10:42:26;2.92;;;2.72;;
16600;SDS011;34891;48.164;11.572;2022-10-16T10:47:36;2.85;;;2.65;;
16600;SDS011;34891;48.164;11.572;2022-10-16T10:52:43;3.97;;;2.72;;
16600;SDS011;34891;48.164;11.572;2022-10-16T11:03:27;2.40;;;2.30;;
16600;SDS011;34891;48.164;11.572;2022-10-16T11:08:34;3.50;;;2.25;;
16600;SDS011;34891;48.164;11.572;2022-10-16T11:13:38;3.70;;;3.30;;
16600;SDS011;34891;48.164;11.572;2022-10-16T11:18:45;2.88;;;2.67;;
16600;SDS011;34891;48.164;11.572;2022-10-16T11:23:51;3.10;;;2.30;;
16600;SDS011;34891;48.164;11.572;2022-10-16T11:28:56;2.65;;;2.20;;
16600;SDS011;34891;48.164;11.572;2022-10-16T11:34:02;1.90;;;1.80;;
16600;SDS011;34891;48.164;11.572;2022-10-16T11:39:11;1.92;;;1.83;;
16600;SDS011;34891;48.164;11.572;2022-10-16T11:44:20;2.10;;;2.00;;
16600;SDS011;34891;48.164;11.572;2022-10-16T11:49:27;2.00;;;1.90;;
16600;SDS011;34891;48.164;11.572;2022-10-16T11:54:35;3.03;;;2.03;;
16600;SDS011;34891;48.164;11.572;2022-10-16T11:59:42;1.42;;;1.42;;
16600;SDS011;34891;48.164;11.572;2022-10-16T12:04:50;2.05;;;1.80;;
16600;SDS011;34891;48.164;11.572;2022-10-16T12:09:53;2.97;;;1.80;;
16600;SDS011;34891;48.164;11.572;2022-10-16T12:15:00;1.48;;;1.23;;
16600;SDS011;34891;48.164;11.572;2022-10-16T12:20:25;1.83;;;1.73;;
16600;SDS011;34891;48.164;11.572;2022-10-16T12:25:29;1.98;;;1.88;;
16600;SDS011;34891;48.164;11.572;2022-10-16T12:30:33;2.85;;;2.40;;
16600;SDS011;34891;48.164;11.572;2022-10-16T12:35:43;2.25;;;1.90;;
16600;SDS011;34891;48.164;11.572;2022-10-16T12:40:47;4.05;;;2.05;;
16600;SDS011;34891;48.164;11.572;2022-10-16T12:46:02;2.00;;;1.90;;
16600;SDS011;34891;48.164;11.572;2022-10-16T12:51:11;2.10;;;1.75;;
16600;SDS011;34891;48.164;11.572;2022-10-16T12:56:15;2.88;;;2.00;;
16600;SDS011;34891;48.164;11.572;2022-10-16T13:01:24;3.97;;;2.00;;
16600;SDS011;34891;48.164;11.572;2022-10-16T13:06:33;2.25;;;1.70;;
16600;SDS011;34891;48.164;11.572;2022-10-16T13:11:43;3.45;;;1.63;;
16600;SDS011;34891;48.164;11.572;2022-10-16T13:16:50;1.60;;;1.50;;
16600;SDS011;34891;48.164;11.572;2022-10-16T13:22:00;1.77;;;1.67;;
16600;SDS011;34891;48.164;11.572;2022-10-16T13:27:07;2.03;;;1.90;;
16600;SDS011;34891;48.164;11.572;2022-10-16T13:32:14;2.42;;;2.15;;
16600;SDS011;34891;48.164;11.572;2022-10-16T13:37:19;1.77;;;1.50;;
16600;SDS011;34891;48.164;11.572;2022-10-16T13:42:23;4.72;;;1.90;;
16600;SDS011;34891;48.164;11.572;2022-10-16T13:47:29;1.50;;;1.40;;
16600;SDS011;34891;48.164;11.572;2022-10-16T13:52:33;2.45;;;1.50;;
16600;SDS011;34891;48.164;11.572;2022-10-16T13:57:37;1.40;;;1.30;;
16600;SDS011;34891;48.164;11.572;2022-10-16T14:02:40;2.22;;;1.20;;
16600;SDS011;34891;48.164;11.572;2022-10-16T14:07:47;1.80;;;1.20;;
16600;SDS011;34891;48.164;11.572;2022-10-16T14:12:56;2.72;;;1.27;;
16600;SDS011;34891;48.164;11.572;2022-10-16T14:17:59;0.98;;;0.90;;
16600;SDS011;34891;48.164;11.572;2022-10-16T14:23:04;1.08;;;1.00;;
16600;SDS011;34891;48.164;11.572;2022-10-16T14:28:14;0.95;;;0.95;;
16600;SDS011;34891;48.164;11.572;2022-10-16T14:33:20;1.02;;;0.98;;
16600;SDS011;34891;48.164;11.572;2022-10-16T14:38:24;2.83;;;1.10;;
16600;SDS011;34891;48.164;11.572;2022-10-16T14:43:30;1.48;;;1.10;;
16600;SDS011;34891;48.164;11.572;2022-10-16T14:48:33;1.92;;;0.70;;
16600;SDS011;34891;48.164;11.572;2022-10-16T14:53:38;2.08;;;1.00;;
16600;SDS011;34891;48.164;11.572;2022-10-16T14:58:40;1.50;;;1.02;;
16600;SDS011;34891;48.164;11.572;2022-10-16T15:03:43;8.93;;;4.97;;
16600;SDS011;34891;48.164;11.572;2022-10-16T15:08:48;4.30;;;1.42;;
16600;SDS011;34891;48.164;11.572;2022-10-16T15:13:51;5.38;;;3.28;;
16600;SDS011;34891;48.164;11.572;2022-10-16T15:18:53;1.70;;;1.15;;
16600;SDS011;34891;48.164;11.572;2022-10-16T15:29:00;3.88;;;1.75;;
16600;SDS011;34891;48.164;11.572;2022-10-16T15:34:03;4.53;;;2.13;;
16600;SDS011;34891;48.164;11.572;2022-10-16T15:39:10;4.25;;;1.40;;
16600;SDS011;34891;48.164;11.572;2022-10-16T15:44:16;3.70;;;1.75;;
16600;SDS011;34891;48.164;11.572;2022-10-16T15:49:19;3.33;;;1.55;;
16600;SDS011;34891;48.164;11.572;2022-10-16T15:54:21;1.70;;;1.35;;
16600;SDS011;34891;48.164;11.572;2022-10-16T16:04:30;3.63;;;1.70;;
16600;SDS011;34891;48.164;11.572;2022-10-16T16:09:45;3.83;;;2.00;;
16600;SDS011;34891;48.164;11.572;2022-10-16T16:14:47;3.45;;;1.50;;
16600;SDS011;34891;48.164;11.572;2022-10-16T16:19:52;7.50;;;2.03;;
16600;SDS011;34891;48.164;11.572;2022-10-16T16:24:55;8.70;;;2.08;;
16600;SDS011;34891;48.164;11.572;2022-10-16T16:29:57;3.85;;;1.65;;
16600;SDS011;34891;48.164;11.572;2022-10-16T16:35:02;5.80;;;3.13;;
16600;SDS011;34891;48.164;11.572;2022-10-16T16:40:05;3.15;;;1.80;;
16600;SDS011;34891;48.164;11.572;2022-10-16T16:45:09;7.18;;;2.20;;
16600;SDS011;34891;48.164;11.572;2022-10-16T16:50:13;5.90;;;2.95;;
16600;SDS011;34891;48.164;11.572;2022-10-16T16:55:16;4.78;;;2.35;;
16600;SDS011;34891;48.164;11.572;2022-10-16T17:00:19;6.10;;;2.47;;
16600;SDS011;34891;48.164;11.572;2022-10-16T17:05:23;5.45;;;2.00;;
16600;SDS011;34891;48.164;11.572;2022-10-16T17:10:26;4.93;;;2.58;;
16600;SDS011;34891;48.164;11.572;2022-10-16T17:15:29;5.07;;;2.03;;
16600;SDS011;34891;48.164;11.572;2022-10-16T17:20:34;4.88;;;2.00;;
16600;SDS011;34891;48.164;11.572;2022-10-16T17:25:38;6.93;;;2.25;;
16600;SDS011;34891;48.164;11.572;2022-10-16T17:30:41;5.60;;;2.92;;
16600;SDS011;34891;48.164;11.572;2022-10-16T17:35:46;8.30;;;3.13;;
16600;SDS011;34891;48.164;11.572;2022-10-16T17:40:49;7.43;;;2.70;;
16600;SDS011;34891;48.164;11.572;2022-10-16T17:45:52;8.10;;;3.20;;
16600;SDS011;34891;48.164;11.572;2022-10-16T17:50:56;6.57;;;3.10;;
16600;SDS011;34891;48.164;11.572;2022-10-16T17:56:01;8.77;;;3.05;;
16600;SDS011;34891;48.164;11.572;2022-10-16T18:01:10;5.07;;;2.58;;
16600;SDS011;34891;48.164;11.572;2022-10-16T18:06:14;5.88;;;2.60;;
16600;SDS011;34891;48.164;11.572;2022-10-16T18:11:24;8.20;;;3.70;;
16600;SDS011;34891;48.164;11.572;2022-10-16T18:16:28;17.23;;;7.90;;
16600;SDS011;34891;48.164;11.572;2022-10-16T18:21:33;15.10;;;5.95;;
16600;SDS011;34891;48.164;11.572;2022-10-16T18:26:36;10.52;;;5.07;;
16600;SDS011;34891;48.164;11.572;2022-10-16T18:31:40;6.28;;;2.88;;
16600;SDS011;34891;48.164;11.572;2022-10-16T18:36:45;7.88;;;3.17;;
16600;SDS011;34891;48.164;11.572;2022-10-16T18:41:53;7.05;;;3.67;;
16600;SDS011;34891;48.164;11.572;2022-10-16T18:47:00;7.43;;;3.85;;
16600;SDS011;34891;48.164;11.572;2022-10-16T18:52:04;10.87;;;3.90;;
16600;SDS011;34891;48.164;11.572;2022-10-16T18:57:07;7.75;;;3.30;;
16600;SDS011;34891;48.164;11.572;2022-10-16T19:02:10;6.13;;;2.90;;
16600;SDS011;34891;48.164;11.572;2022-10-16T19:07:15;9.32;;;2.50;;
16600;SDS011;34891;48.164;11.572;2022-10-16T19:12:18;10.43;;;2.75;;
16600;SDS011;34891;48.164;11.572;2022-10-16T19:17:21;5.95;;;2.75;;
16600;SDS011;34891;48.164;11.572;2022-10-16T19:27:52;6.88;;;3.08;;
16600;SDS011;34891;48.164;11.572;2022-10-16T19:32:55;8.50;;;3.67;;
16600;SDS011;34891;48.164;11.572;2022-10-16T19:37:59;10.75;;;5.82;;
16600;SDS011;34891;48.164;11.572;2022-10-16T19:43:03;7.97;;;3.08;;
16600;SDS011;34891;48.164;11.572;2022-10-16T19:48:06;6.38;;;3.70;;
16600;SDS011;34891;48.164;11.572;2022-10-16T19:53:09;8.82;;;3.22;;
16600;SDS011;34891;48.164;11.572;2022-10-16T19:58:13;9.15;;;3.72;;
16600;SDS011;34891;48.164;11.572;2022-10-16T20:03:16;6.88;;;3.03;;
16600;SDS011;34891;48.164;11.572;2022-10-16T20:08:19;6.30;;;3.35;;
16600;SDS011;34891;48.164;11.572;2022-10-16T20:13:24;8.55;;;3.05;;
16600;SDS011;34891;48.164;11.572;2022-10-16T20:18:28;5.70;;;2.67;;
16600;SDS011;34891;48.164;11.572;2022-10-16T20:23:35;4.57;;;2.55;;
16600;SDS011;34891;48.164;11.572;2022-10-16T20:28:40;8.90;;;3.30;;
16600;SDS011;34891;48.164;11.572;2022-10-16T20:33:43;7.20;;;3.10;;
16600;SDS011;34891;48.164;11.572;2022-10-16T20:38:46;8.57;;;3.63;;
16600;SDS011;34891;48.164;11.572;2022-10-16T20:43:50;7.43;;;3.53;;
16600;SDS011;34891;48.164;11.572;2022-10-16T20:48:54;7.70;;;3.40;;
16600;SDS011;34891;48.164;11.572;2022-10-16T20:54:11;8.18;;;3.35;;
16600;SDS011;34891;48.164;11.572;2022-10-16T20:59:15;10.47;;;4.30;;
16600;SDS011;34891;48.164;11.572;2022-10-16T21:04:18;8.10;;;3.45;;
16600;SDS011;34891;48.164;11.572;2022-10-16T21:09:21;7.83;;;3.37;;
16600;SDS011;34891;48.164;11.572;2022-10-16T21:14:26;8.70;;;3.38;;
16600;SDS011;34891;48.164;11.572;2022-10-16T21:19:30;7.85;;;2.55;;
16600;SDS011;34891;48.164;11.572;2022-10-16T21:24:33;6.37;;;2.63;;
16600;SDS011;34891;48.164;11.572;2022-10-16T21:34:41;7.30;;;3.65;;
16600;SDS011;34891;48.164;11.572;2022-10-16T21:39:44;6.65;;;3.40;;
16600;SDS011;34891;48.164;11.572;2022-10-16T21:44:47;8.53;;;3.63;;
16600;SDS011;34891;48.164;11.572;2022-10-16T21:49:51;4.70;;;3.10;;
16600;SDS011;34891;48.164;11.572;2022-10-16T21:54:54;6.00;;;2.72;;
16600;SDS011;34891;48.164;11.572;2022-10-16T21:59:57;5.35;;;2.78;;
16600;SDS011;34891;48.164;11.572;2022-10-16T22:05:01;5.60;;;2.83;;
16600;SDS011;34891;48.164;11.572;2022-10-16T22:10:04;4.85;;;2.70;;
16600;SDS011;34891;48.164;11.572;2022-10-16T22:15:08;5.45;;;2.67;;
16600;SDS011;34891;48.164;11.572;2022-10-16T22:20:12;8.50;;;3.05;;
16600;SDS011;34891;48.164;11.572;2022-10-16T22:25:15;5.53;;;2.88;;
16600;SDS011;34891;48.164;11.572;2022-10-16T22:30:18;5.72;;;2.55;;
16600;SDS011;34891;48.164;11.572;2022-10-16T22:35:27;5.05;;;2.83;;
16600;SDS011;34891;48.164;11.572;2022-10-16T22:40:32;6.28;;;2.78;;
16600;SDS011;34891;48.164;11.572;2022-10-16T22:45:35;6.22;;;2.58;;
16600;SDS011;34891;48.164;11.572;2022-10-16T22:50:41;4.93;;;2.60;;
16600;SDS011;34891;48.164;11.572;2022-10-16T22:55:44;6.07;;;2.70;;
16600;SDS011;34891;48.164;11.572;2022-10-16T23:00:47;5.57;;;2.43;;
16600;SDS011;34891;48.164;11.572;2022-10-16T23:05:59;4.75;;;2.53;;
16600;SDS011;34891;48.164;11.572;2022-10-16T23:11:04;6.20;;;2.55;;
16600;SDS011;34891;48.164;11.572;2022-10-16T23:16:08;6.47;;;3.00;;
16600;SDS011;34891;48.164;11.572;2022-10-16T23:21:15;4.35;;;2.53;;
16600;SDS011;34891;48.164;11.572;2022-10-16T23:26:19;6.22;;;2.80;;
16600;SDS011;34891;48.164;11.572;2022-10-16T23:31:23;5.72;;;2.60;;
16600;SDS011;34891;48.164;11.572;2022-10-16T23:36:27;6.18;;;2.80;;
16600;SDS011;34891;48.164;11.572;2022-10-16T23:41:30;6.28;;;2.47;;
16600;SDS011;34891;48.164;11.572;2022-10-16T23:46:33;7.60;;;2.77;;
16600;SDS011;34891;48.164;11.572;2022-10-16T23:51:37;6.50;;;3.03;;
16600;SDS011;34891;48.164;11.572;2022-10-16T23:56:40;6.95;;;2.92;;
